Aérodrome :
LOGIN :

S'inscrire | Disclaimer

   EN    FR    IT 

 










Légende :    VFR   VFR Marginal   IFR   IFR Intensif   IFR Très Intensif
Visi : 
Plafond : 
>= 8 km
>= 3000ft
5 à 8 km
1000 à 3000 ft
1500m à 5 km
500 à 1000 ft
800 à 1500m
200 à 500 ft
< 800m
< 200 ft
Symboles :   Orages  Brouillard  Fortes neiges  Fortes précipitations  Vent > 20 kt
SIGMETs :   Divers  Orages  Givrage  Turbulence  Onde Orograph.  Cendres Volcan.







- Altitude de l'aérodrome : 24 ft
- Code IATA : FAO


LPFR - Faro

DERNIER METAR :
  • 141800Z 08009KT 9999 FEW025 19/14 Q1014

METARs EXPIRÉS :
  • 141730Z 09009KT 9999 FEW025 19/14 Q1014
  • 141700Z 08010KT 9999 FEW025 20/13 Q1014
  • 141630Z 08010KT 9999 FEW030 20/13 Q1014
  • 141600Z 08010KT 9999 FEW030 20/13 Q1014
  • 141530Z 09012KT 9999 FEW035 21/13 Q1014

TAF TAF LPFR
Valide du 14 à 18h jusqu'au 15 à 18h UTC


141700Z 1418/1518 09008KT 9999 FEW030
TEMPO 1500/1506 BKN025
BECMG 1504/1506 15010KT SCT020
Pas de NOTAMs connus pour ce terrain.



MET'MAP, la Météo Aéronautique d'un coup d'oeil ! - Copyright ORBIFLY Décembre 2007 - Disclaimer

ORBIFLY MET'MAP TEAM :

Programmation & Développement : Alexandra Zaïnal
Conception & Développement : Baudouin d'Aumeries
Co-Programmation & Développement : Marc-Olivier Méhu
Soutien technique & logistique : Manuel Goepfert

Contact : metmap@orbifly.com




SOURCES & CREDITS :

   NOAA